sensor_id;sensor_type;location;lat;lon;timestamp;temperature;humidity
15241;DHT22;7723;52.170;9.978;2022-12-07T00:00:55;3.70;99.90
15241;DHT22;7723;52.170;9.978;2022-12-07T00:03:22;3.80;99.90
15241;DHT22;7723;52.170;9.978;2022-12-07T00:05:49;3.70;99.90
15241;DHT22;7723;52.170;9.978;2022-12-07T00:08:16;3.80;99.90
15241;DHT22;7723;52.170;9.978;2022-12-07T00:10:45;3.80;99.90
15241;DHT22;7723;52.170;9.978;2022-12-07T00:13:12;3.80;99.90
15241;DHT22;7723;52.170;9.978;2022-12-07T00:15:40;3.80;99.90
15241;DHT22;7723;52.170;9.978;2022-12-07T00:18:07;3.80;99.90
15241;DHT22;7723;52.170;9.978;2022-12-07T00:20:34;3.90;99.90
15241;DHT22;7723;52.170;9.978;2022-12-07T00:23:02;3.90;99.90
15241;DHT22;7723;52.170;9.978;2022-12-07T00:25:30;3.90;99.90
15241;DHT22;7723;52.170;9.978;2022-12-07T00:27:59;3.90;99.90
15241;DHT22;7723;52.170;9.978;2022-12-07T00:30:26;3.90;99.90
15241;DHT22;7723;52.170;9.978;2022-12-07T00:32:53;3.80;99.90
15241;DHT22;7723;52.170;9.978;2022-12-07T00:35:21;3.80;99.90
15241;DHT22;7723;52.170;9.978;2022-12-07T00:37:48;3.90;99.90
15241;DHT22;7723;52.170;9.978;2022-12-07T00:40:15;3.90;99.90
15241;DHT22;7723;52.170;9.978;2022-12-07T00:42:42;3.90;99.90
15241;DHT22;7723;52.170;9.978;2022-12-07T00:45:11;3.90;99.90
15241;DHT22;7723;52.170;9.978;2022-12-07T00:47:38;3.90;99.90
15241;DHT22;7723;52.170;9.978;2022-12-07T00:50:06;3.90;99.90
15241;DHT22;7723;52.170;9.978;2022-12-07T00:52:33;3.90;99.90
15241;DHT22;7723;52.170;9.978;2022-12-07T00:55:01;3.90;99.90
15241;DHT22;7723;52.170;9.978;2022-12-07T00:57:29;3.90;99.90
15241;DHT22;7723;52.170;9.978;2022-12-07T00:59:57;4.00;99.90
15241;DHT22;7723;52.170;9.978;2022-12-07T01:02:27;3.90;99.90
15241;DHT22;7723;52.170;9.978;2022-12-07T01:04:54;4.00;99.90
15241;DHT22;7723;52.170;9.978;2022-12-07T01:07:21;4.00;99.90
15241;DHT22;7723;52.170;9.978;2022-12-07T01:09:49;4.00;99.90
15241;DHT22;7723;52.170;9.978;2022-12-07T01:12:16;4.00;99.90
15241;DHT22;7723;52.170;9.978;2022-12-07T01:14:43;3.90;99.90
15241;DHT22;7723;52.170;9.978;2022-12-07T01:17:10;4.00;99.90
15241;DHT22;7723;52.170;9.978;2022-12-07T01:19:39;4.00;99.90
15241;DHT22;7723;52.170;9.978;2022-12-07T01:22:06;4.00;99.90
15241;DHT22;7723;52.170;9.978;2022-12-07T01:24:33;4.00;99.90
15241;DHT22;7723;52.170;9.978;2022-12-07T01:27:00;4.00;99.90
15241;DHT22;7723;52.170;9.978;2022-12-07T01:29:28;4.00;99.90
15241;DHT22;7723;52.170;9.978;2022-12-07T01:31:55;4.00;99.90
15241;DHT22;7723;52.170;9.978;2022-12-07T01:34:22;4.10;99.90
15241;DHT22;7723;52.170;9.978;2022-12-07T01:36:51;4.00;99.90
15241;DHT22;7723;52.170;9.978;2022-12-07T01:39:18;4.10;99.90
15241;DHT22;7723;52.170;9.978;2022-12-07T01:41:45;4.10;99.90
15241;DHT22;7723;52.170;9.978;2022-12-07T01:44:15;4.00;99.90
15241;DHT22;7723;52.170;9.978;2022-12-07T01:46:44;4.00;99.90
15241;DHT22;7723;52.170;9.978;2022-12-07T01:49:16;4.00;99.90
15241;DHT22;7723;52.170;9.978;2022-12-07T01:51:46;4.00;99.90
15241;DHT22;7723;52.170;9.978;2022-12-07T01:54:16;4.00;99.90
15241;DHT22;7723;52.170;9.978;2022-12-07T01:56:49;4.00;99.90
15241;DHT22;7723;52.170;9.978;2022-12-07T01:59:20;4.00;99.90
15241;DHT22;7723;52.170;9.978;2022-12-07T02:01:48;4.10;99.90
15241;DHT22;7723;52.170;9.978;2022-12-07T02:04:15;4.10;99.90
15241;DHT22;7723;52.170;9.978;2022-12-07T02:06:45;4.10;99.90
15241;DHT22;7723;52.170;9.978;2022-12-07T02:09:14;4.00;99.90
15241;DHT22;7723;52.170;9.978;2022-12-07T02:11:42;4.00;99.90
15241;DHT22;7723;52.170;9.978;2022-12-07T02:14:09;4.10;99.90
15241;DHT22;7723;52.170;9.978;2022-12-07T02:16:46;4.10;99.90
15241;DHT22;7723;52.170;9.978;2022-12-07T02:19:45;4.10;99.90
15241;DHT22;7723;52.170;9.978;2022-12-07T02:22:35;4.10;99.90
15241;DHT22;7723;52.170;9.978;2022-12-07T02:25:18;4.10;99.90
15241;DHT22;7723;52.170;9.978;2022-12-07T02:27:54;4.00;99.90
15241;DHT22;7723;52.170;9.978;2022-12-07T02:30:28;4.00;99.90
15241;DHT22;7723;52.170;9.978;2022-12-07T02:33:01;4.00;99.90
15241;DHT22;7723;52.170;9.978;2022-12-07T02:35:33;4.00;99.90
15241;DHT22;7723;52.170;9.978;2022-12-07T02:38:06;4.00;99.90
15241;DHT22;7723;52.170;9.978;2022-12-07T02:40:39;4.00;99.90
15241;DHT22;7723;52.170;9.978;2022-12-07T02:43:09;4.00;99.90
15241;DHT22;7723;52.170;9.978;2022-12-07T02:45:41;3.90;99.90
15241;DHT22;7723;52.170;9.978;2022-12-07T02:48:13;3.90;99.90
15241;DHT22;7723;52.170;9.978;2022-12-07T02:50:44;3.80;99.90
15241;DHT22;7723;52.170;9.978;2022-12-07T02:53:30;3.80;99.90
15241;DHT22;7723;52.170;9.978;2022-12-07T02:55:58;3.70;99.90
15241;DHT22;7723;52.170;9.978;2022-12-07T02:58:35;3.70;99.90
15241;DHT22;7723;52.170;9.978;2022-12-07T03:01:15;3.60;99.90
15241;DHT22;7723;52.170;9.978;2022-12-07T03:03:48;3.60;99.90
15241;DHT22;7723;52.170;9.978;2022-12-07T03:06:24;3.50;99.90
15241;DHT22;7723;52.170;9.978;2022-12-07T03:09:01;3.40;99.90
15241;DHT22;7723;52.170;9.978;2022-12-07T03:11:38;3.50;99.90
15241;DHT22;7723;52.170;9.978;2022-12-07T03:14:13;3.40;99.90
15241;DHT22;7723;52.170;9.978;2022-12-07T03:16:46;3.40;99.90
15241;DHT22;7723;52.170;9.978;2022-12-07T03:19:17;3.40;99.90
15241;DHT22;7723;52.170;9.978;2022-12-07T03:21:49;3.40;99.90
15241;DHT22;7723;52.170;9.978;2022-12-07T03:24:21;3.40;99.90
15241;DHT22;7723;52.170;9.978;2022-12-07T03:26:52;3.50;99.90
15241;DHT22;7723;52.170;9.978;2022-12-07T03:29:25;3.60;99.90
15241;DHT22;7723;52.170;9.978;2022-12-07T03:32:00;3.60;99.90
15241;DHT22;7723;52.170;9.978;2022-12-07T03:34:31;3.60;99.90
15241;DHT22;7723;52.170;9.978;2022-12-07T03:37:03;3.70;99.90
15241;DHT22;7723;52.170;9.978;2022-12-07T03:39:36;3.70;99.90
15241;DHT22;7723;52.170;9.978;2022-12-07T03:42:06;3.80;99.90
15241;DHT22;7723;52.170;9.978;2022-12-07T03:44:35;3.80;99.90
15241;DHT22;7723;52.170;9.978;2022-12-07T03:47:07;3.80;99.90
15241;DHT22;7723;52.170;9.978;2022-12-07T03:49:43;3.80;99.90
15241;DHT22;7723;52.170;9.978;2022-12-07T03:52:18;3.80;99.90
15241;DHT22;7723;52.170;9.978;2022-12-07T03:54:53;3.80;99.90
15241;DHT22;7723;52.170;9.978;2022-12-07T03:57:23;3.80;99.90
15241;DHT22;7723;52.170;9.978;2022-12-07T03:59:51;3.80;99.90
15241;DHT22;7723;52.170;9.978;2022-12-07T04:02:22;3.90;99.90
15241;DHT22;7723;52.170;9.978;2022-12-07T04:04:50;3.90;99.90
15241;DHT22;7723;52.170;9.978;2022-12-07T04:07:18;3.90;99.90
15241;DHT22;7723;52.170;9.978;2022-12-07T04:09:45;3.90;99.90
15241;DHT22;7723;52.170;9.978;2022-12-07T04:12:12;3.90;99.90
15241;DHT22;7723;52.170;9.978;2022-12-07T04:14:39;3.80;99.90
15241;DHT22;7723;52.170;9.978;2022-12-07T04:17:06;3.80;99.90
15241;DHT22;7723;52.170;9.978;2022-12-07T04:19:35;3.80;99.90
15241;DHT22;7723;52.170;9.978;2022-12-07T04:22:03;3.80;99.90
15241;DHT22;7723;52.170;9.978;2022-12-07T04:24:31;3.80;99.90
15241;DHT22;7723;52.170;9.978;2022-12-07T04:26:59;3.80;99.90
15241;DHT22;7723;52.170;9.978;2022-12-07T04:29:27;3.80;99.90
15241;DHT22;7723;52.170;9.978;2022-12-07T04:31:54;3.80;99.90
15241;DHT22;7723;52.170;9.978;2022-12-07T04:34:22;3.80;99.90
15241;DHT22;7723;52.170;9.978;2022-12-07T04:36:50;3.90;99.90
15241;DHT22;7723;52.170;9.978;2022-12-07T04:39:20;3.90;99.90
15241;DHT22;7723;52.170;9.978;2022-12-07T04:41:47;3.90;99.90
15241;DHT22;7723;52.170;9.978;2022-12-07T04:44:15;3.90;99.90
15241;DHT22;7723;52.170;9.978;2022-12-07T04:46:43;3.90;99.90
15241;DHT22;7723;52.170;9.978;2022-12-07T04:49:11;4.00;99.90
15241;DHT22;7723;52.170;9.978;2022-12-07T04:51:39;4.00;99.90
15241;DHT22;7723;52.170;9.978;2022-12-07T04:54:08;4.00;99.90
15241;DHT22;7723;52.170;9.978;2022-12-07T04:56:36;3.90;99.90
15241;DHT22;7723;52.170;9.978;2022-12-07T04:59:03;3.90;99.90
15241;DHT22;7723;52.170;9.978;2022-12-07T05:01:31;3.90;99.90
15241;DHT22;7723;52.170;9.978;2022-12-07T05:03:59;3.90;99.90
15241;DHT22;7723;52.170;9.978;2022-12-07T05:06:26;3.90;99.90
15241;DHT22;7723;52.170;9.978;2022-12-07T05:08:53;4.00;99.90
15241;DHT22;7723;52.170;9.978;2022-12-07T05:11:22;4.00;99.90
15241;DHT22;7723;52.170;9.978;2022-12-07T05:14:08;4.00;99.90
15241;DHT22;7723;52.170;9.978;2022-12-07T05:16:36;4.00;99.90
15241;DHT22;7723;52.170;9.978;2022-12-07T05:19:04;3.90;99.90
15241;DHT22;7723;52.170;9.978;2022-12-07T05:21:31;3.90;99.90
15241;DHT22;7723;52.170;9.978;2022-12-07T05:23:58;4.00;99.90
15241;DHT22;7723;52.170;9.978;2022-12-07T05:26:28;3.90;99.90
15241;DHT22;7723;52.170;9.978;2022-12-07T05:28:56;3.90;99.90
15241;DHT22;7723;52.170;9.978;2022-12-07T05:31:24;3.90;99.90
15241;DHT22;7723;52.170;9.978;2022-12-07T05:33:52;3.80;99.90
15241;DHT22;7723;52.170;9.978;2022-12-07T05:36:20;3.80;99.90
15241;DHT22;7723;52.170;9.978;2022-12-07T05:38:48;3.80;99.90
15241;DHT22;7723;52.170;9.978;2022-12-07T05:41:17;3.80;99.90
15241;DHT22;7723;52.170;9.978;2022-12-07T05:44:03;3.80;99.90
15241;DHT22;7723;52.170;9.978;2022-12-07T05:46:30;3.80;99.90
15241;DHT22;7723;52.170;9.978;2022-12-07T05:48:58;3.70;99.90
15241;DHT22;7723;52.170;9.978;2022-12-07T05:51:25;3.70;99.90
15241;DHT22;7723;52.170;9.978;2022-12-07T05:53:52;3.80;99.90
15241;DHT22;7723;52.170;9.978;2022-12-07T05:56:20;3.80;99.90
15241;DHT22;7723;52.170;9.978;2022-12-07T05:58:47;3.80;99.90
15241;DHT22;7723;52.170;9.978;2022-12-07T06:01:33;3.80;99.90
15241;DHT22;7723;52.170;9.978;2022-12-07T06:04:00;3.80;99.90
15241;DHT22;7723;52.170;9.978;2022-12-07T06:06:27;3.70;99.90
15241;DHT22;7723;52.170;9.978;2022-12-07T06:08:54;3.70;99.90
15241;DHT22;7723;52.170;9.978;2022-12-07T06:11:21;3.70;99.90
15241;DHT22;7723;52.170;9.978;2022-12-07T06:14:06;3.70;99.90
15241;DHT22;7723;52.170;9.978;2022-12-07T06:16:34;3.80;99.90
15241;DHT22;7723;52.170;9.978;2022-12-07T06:19:01;3.70;99.90
15241;DHT22;7723;52.170;9.978;2022-12-07T06:21:29;3.70;99.90
15241;DHT22;7723;52.170;9.978;2022-12-07T06:23:56;3.80;99.90
15241;DHT22;7723;52.170;9.978;2022-12-07T06:26:23;3.80;99.90
15241;DHT22;7723;52.170;9.978;2022-12-07T06:28:50;3.80;99.90
15241;DHT22;7723;52.170;9.978;2022-12-07T06:31:18;3.80;99.90
15241;DHT22;7723;52.170;9.978;2022-12-07T06:33:46;3.80;99.90
15241;DHT22;7723;52.170;9.978;2022-12-07T06:36:13;3.80;99.90
15241;DHT22;7723;52.170;9.978;2022-12-07T06:38:41;3.80;99.90
15241;DHT22;7723;52.170;9.978;2022-12-07T06:41:08;3.80;99.90
15241;DHT22;7723;52.170;9.978;2022-12-07T06:43:35;3.80;99.90
15241;DHT22;7723;52.170;9.978;2022-12-07T06:46:02;3.90;99.90
15241;DHT22;7723;52.170;9.978;2022-12-07T06:48:30;3.90;99.90
15241;DHT22;7723;52.170;9.978;2022-12-07T06:50:59;3.90;99.90
15241;DHT22;7723;52.170;9.978;2022-12-07T06:53:26;3.90;99.90
15241;DHT22;7723;52.170;9.978;2022-12-07T06:55:53;3.90;99.90
15241;DHT22;7723;52.170;9.978;2022-12-07T06:58:21;3.90;99.90
15241;DHT22;7723;52.170;9.978;2022-12-07T07:00:49;3.90;99.90
15241;DHT22;7723;52.170;9.978;2022-12-07T07:03:16;3.90;99.90
15241;DHT22;7723;52.170;9.978;2022-12-07T07:05:44;4.00;99.90
15241;DHT22;7723;52.170;9.978;2022-12-07T07:08:13;4.00;99.90
15241;DHT22;7723;52.170;9.978;2022-12-07T07:10:41;4.00;99.90
15241;DHT22;7723;52.170;9.978;2022-12-07T07:13:08;4.00;99.90
15241;DHT22;7723;52.170;9.978;2022-12-07T07:15:37;4.00;99.90
15241;DHT22;7723;52.170;9.978;2022-12-07T07:18:05;4.00;99.90
15241;DHT22;7723;52.170;9.978;2022-12-07T07:20:32;4.00;99.90
15241;DHT22;7723;52.170;9.978;2022-12-07T07:22:59;4.00;99.90
15241;DHT22;7723;52.170;9.978;2022-12-07T07:25:28;4.00;99.90
15241;DHT22;7723;52.170;9.978;2022-12-07T07:27:55;4.00;99.90
15241;DHT22;7723;52.170;9.978;2022-12-07T07:30:22;4.00;99.90
15241;DHT22;7723;52.170;9.978;2022-12-07T07:32:49;4.00;99.90
15241;DHT22;7723;52.170;9.978;2022-12-07T07:35:17;4.00;99.90
15241;DHT22;7723;52.170;9.978;2022-12-07T07:37:44;4.00;99.90
15241;DHT22;7723;52.170;9.978;2022-12-07T07:40:12;4.00;99.90
15241;DHT22;7723;52.170;9.978;2022-12-07T07:42:41;4.00;99.90
15241;DHT22;7723;52.170;9.978;2022-12-07T07:45:08;4.00;99.90
15241;DHT22;7723;52.170;9.978;2022-12-07T07:47:36;4.00;99.90
15241;DHT22;7723;52.170;9.978;2022-12-07T07:50:04;4.00;99.90
15241;DHT22;7723;52.170;9.978;2022-12-07T07:52:31;4.00;99.90
15241;DHT22;7723;52.170;9.978;2022-12-07T07:54:59;3.90;99.90
15241;DHT22;7723;52.170;9.978;2022-12-07T07:57:26;4.00;99.90
15241;DHT22;7723;52.170;9.978;2022-12-07T07:59:55;4.00;99.90
15241;DHT22;7723;52.170;9.978;2022-12-07T08:02:22;3.90;99.90
15241;DHT22;7723;52.170;9.978;2022-12-07T08:04:50;3.90;99.90
15241;DHT22;7723;52.170;9.978;2022-12-07T08:07:17;3.90;99.90
15241;DHT22;7723;52.170;9.978;2022-12-07T08:09:44;4.00;99.90
15241;DHT22;7723;52.170;9.978;2022-12-07T08:12:12;3.90;99.90
15241;DHT22;7723;52.170;9.978;2022-12-07T08:14:39;4.00;99.90
15241;DHT22;7723;52.170;9.978;2022-12-07T08:17:08;4.00;99.90
15241;DHT22;7723;52.170;9.978;2022-12-07T08:19:35;4.10;99.90
15241;DHT22;7723;52.170;9.978;2022-12-07T08:22:02;4.00;99.90
15241;DHT22;7723;52.170;9.978;2022-12-07T08:24:32;4.00;99.90
15241;DHT22;7723;52.170;9.978;2022-12-07T08:26:59;4.00;99.90
15241;DHT22;7723;52.170;9.978;2022-12-07T08:29:26;4.00;99.90
15241;DHT22;7723;52.170;9.978;2022-12-07T08:31:54;4.10;99.90
15241;DHT22;7723;52.170;9.978;2022-12-07T08:34:22;4.00;99.90
15241;DHT22;7723;52.170;9.978;2022-12-07T08:36:50;4.10;99.90
15241;DHT22;7723;52.170;9.978;2022-12-07T08:39:17;4.20;99.90
15241;DHT22;7723;52.170;9.978;2022-12-07T08:41:44;4.20;99.90
15241;DHT22;7723;52.170;9.978;2022-12-07T08:44:11;4.20;99.90
15241;DHT22;7723;52.170;9.978;2022-12-07T08:46:40;4.20;99.90
15241;DHT22;7723;52.170;9.978;2022-12-07T08:49:11;4.20;99.90
15241;DHT22;7723;52.170;9.978;2022-12-07T08:51:40;4.30;99.90
15241;DHT22;7723;52.170;9.978;2022-12-07T08:54:11;4.40;99.90
15241;DHT22;7723;52.170;9.978;2022-12-07T08:56:39;4.40;99.90
15241;DHT22;7723;52.170;9.978;2022-12-07T08:59:07;4.50;99.90
15241;DHT22;7723;52.170;9.978;2022-12-07T09:01:35;4.50;99.90
15241;DHT22;7723;52.170;9.978;2022-12-07T09:04:02;4.60;99.90
15241;DHT22;7723;52.170;9.978;2022-12-07T09:06:29;4.60;99.90
15241;DHT22;7723;52.170;9.978;2022-12-07T09:08:59;4.70;99.90
15241;DHT22;7723;52.170;9.978;2022-12-07T09:11:29;4.70;99.90
15241;DHT22;7723;52.170;9.978;2022-12-07T09:13:56;4.70;99.90
15241;DHT22;7723;52.170;9.978;2022-12-07T09:16:23;4.70;99.90
15241;DHT22;7723;52.170;9.978;2022-12-07T09:18:50;4.80;99.90
15241;DHT22;7723;52.170;9.978;2022-12-07T09:21:18;4.80;99.90
15241;DHT22;7723;52.170;9.978;2022-12-07T09:23:45;4.90;99.90
15241;DHT22;7723;52.170;9.978;2022-12-07T09:26:13;5.00;99.90
15241;DHT22;7723;52.170;9.978;2022-12-07T09:28:41;5.00;99.90
15241;DHT22;7723;52.170;9.978;2022-12-07T09:31:08;5.00;99.90
15241;DHT22;7723;52.170;9.978;2022-12-07T09:33:35;5.00;99.90
15241;DHT22;7723;52.170;9.978;2022-12-07T09:36:03;5.00;99.90
15241;DHT22;7723;52.170;9.978;2022-12-07T09:38:31;4.90;99.90
15241;DHT22;7723;52.170;9.978;2022-12-07T09:41:04;4.80;99.90
15241;DHT22;7723;52.170;9.978;2022-12-07T09:43:35;4.70;99.90
15241;DHT22;7723;52.170;9.978;2022-12-07T09:46:03;4.70;99.90
15241;DHT22;7723;52.170;9.978;2022-12-07T09:48:34;4.80;99.90
15241;DHT22;7723;52.170;9.978;2022-12-07T09:51:03;4.80;99.90
15241;DHT22;7723;52.170;9.978;2022-12-07T09:53:40;4.70;99.90
15241;DHT22;7723;52.170;9.978;2022-12-07T09:56:12;4.70;99.90
15241;DHT22;7723;52.170;9.978;2022-12-07T09:58:42;4.70;99.90
15241;DHT22;7723;52.170;9.978;2022-12-07T10:01:13;4.70;99.90
15241;DHT22;7723;52.170;9.978;2022-12-07T10:03:48;4.80;99.90
15241;DHT22;7723;52.170;9.978;2022-12-07T10:06:16;4.80;99.90
15241;DHT22;7723;52.170;9.978;2022-12-07T10:08:43;4.80;99.90
15241;DHT22;7723;52.170;9.978;2022-12-07T10:11:11;4.90;99.90
15241;DHT22;7723;52.170;9.978;2022-12-07T10:13:43;5.00;99.90
15241;DHT22;7723;52.170;9.978;2022-12-07T10:16:37;5.10;99.90
15241;DHT22;7723;52.170;9.978;2022-12-07T10:19:20;5.10;99.90
15241;DHT22;7723;52.170;9.978;2022-12-07T10:22:04;5.20;99.90
15241;DHT22;7723;52.170;9.978;2022-12-07T10:24:32;5.20;99.90
15241;DHT22;7723;52.170;9.978;2022-12-07T10:26:59;5.30;99.90
15241;DHT22;7723;52.170;9.978;2022-12-07T10:29:31;5.30;99.90
15241;DHT22;7723;52.170;9.978;2022-12-07T10:32:00;5.50;99.90
15241;DHT22;7723;52.170;9.978;2022-12-07T10:34:29;5.50;99.90
15241;DHT22;7723;52.170;9.978;2022-12-07T10:37:17;5.50;99.90
15241;DHT22;7723;52.170;9.978;2022-12-07T10:39:47;5.40;99.90
15241;DHT22;7723;52.170;9.978;2022-12-07T10:42:19;5.30;99.90
15241;DHT22;7723;52.170;9.978;2022-12-07T10:44:49;5.30;99.90
15241;DHT22;7723;52.170;9.978;2022-12-07T10:47:32;5.30;99.90
15241;DHT22;7723;52.170;9.978;2022-12-07T10:50:17;5.20;99.90
15241;DHT22;7723;52.170;9.978;2022-12-07T10:53:04;5.20;99.90
15241;DHT22;7723;52.170;9.978;2022-12-07T10:55:46;5.20;99.90
15241;DHT22;7723;52.170;9.978;2022-12-07T10:58:28;5.10;99.90
15241;DHT22;7723;52.170;9.978;2022-12-07T11:01:06;5.10;99.90
15241;DHT22;7723;52.170;9.978;2022-12-07T11:03:47;5.10;99.90
15241;DHT22;7723;52.170;9.978;2022-12-07T11:06:26;5.10;99.90
15241;DHT22;7723;52.170;9.978;2022-12-07T11:09:06;5.10;99.90
15241;DHT22;7723;52.170;9.978;2022-12-07T11:11:42;5.00;99.90
15241;DHT22;7723;52.170;9.978;2022-12-07T11:14:19;5.00;99.90
15241;DHT22;7723;52.170;9.978;2022-12-07T11:16:56;4.90;99.90
15241;DHT22;7723;52.170;9.978;2022-12-07T11:19:34;4.90;99.90
15241;DHT22;7723;52.170;9.978;2022-12-07T11:22:14;5.00;99.90
15241;DHT22;7723;52.170;9.978;2022-12-07T11:24:51;5.10;99.90
15241;DHT22;7723;52.170;9.978;2022-12-07T11:27:27;5.00;99.90
15241;DHT22;7723;52.170;9.978;2022-12-07T11:30:11;5.10;99.90
15241;DHT22;7723;52.170;9.978;2022-12-07T11:32:54;5.20;99.90
15241;DHT22;7723;52.170;9.978;2022-12-07T11:35:33;5.20;99.90
15241;DHT22;7723;52.170;9.978;2022-12-07T11:38:10;5.30;99.90
15241;DHT22;7723;52.170;9.978;2022-12-07T11:40:39;5.30;99.90
15241;DHT22;7723;52.170;9.978;2022-12-07T11:43:15;5.40;99.90
15241;DHT22;7723;52.170;9.978;2022-12-07T11:45:47;5.50;99.90
15241;DHT22;7723;52.170;9.978;2022-12-07T11:48:29;5.50;99.90
15241;DHT22;7723;52.170;9.978;2022-12-07T11:51:01;5.40;99.90
15241;DHT22;7723;52.170;9.978;2022-12-07T11:53:35;5.40;99.90
15241;DHT22;7723;52.170;9.978;2022-12-07T11:56:08;5.30;99.90
15241;DHT22;7723;52.170;9.978;2022-12-07T11:58:44;5.20;99.90
15241;DHT22;7723;52.170;9.978;2022-12-07T12:01:24;5.20;99.90
15241;DHT22;7723;52.170;9.978;2022-12-07T12:03:58;5.20;99.90
15241;DHT22;7723;52.170;9.978;2022-12-07T12:06:27;5.10;99.90
15241;DHT22;7723;52.170;9.978;2022-12-07T12:08:58;5.10;99.90
15241;DHT22;7723;52.170;9.978;2022-12-07T12:11:41;5.00;99.90
15241;DHT22;7723;52.170;9.978;2022-12-07T12:14:22;5.10;99.90
15241;DHT22;7723;52.170;9.978;2022-12-07T12:17:18;5.20;99.90
15241;DHT22;7723;52.170;9.978;2022-12-07T12:20:00;5.20;99.90
15241;DHT22;7723;52.170;9.978;2022-12-07T12:22:34;5.20;99.90
15241;DHT22;7723;52.170;9.978;2022-12-07T12:25:05;5.20;99.90
15241;DHT22;7723;52.170;9.978;2022-12-07T12:27:35;4.80;99.90
15241;DHT22;7723;52.170;9.978;2022-12-07T12:30:05;4.50;99.90
15241;DHT22;7723;52.170;9.978;2022-12-07T12:32:38;4.50;99.90
15241;DHT22;7723;52.170;9.978;2022-12-07T12:35:29;4.60;99.90
15241;DHT22;7723;52.170;9.978;2022-12-07T12:38:24;4.70;99.90
15241;DHT22;7723;52.170;9.978;2022-12-07T12:40:53;4.80;99.90
15241;DHT22;7723;52.170;9.978;2022-12-07T12:43:43;4.90;99.90
15241;DHT22;7723;52.170;9.978;2022-12-07T12:46:36;5.00;99.90
15241;DHT22;7723;52.170;9.978;2022-12-07T12:49:34;5.10;99.90
15241;DHT22;7723;52.170;9.978;2022-12-07T12:55:16;5.20;99.90
15241;DHT22;7723;52.170;9.978;2022-12-07T12:57:47;5.30;99.90
15241;DHT22;7723;52.170;9.978;2022-12-07T13:00:19;5.40;99.90
15241;DHT22;7723;52.170;9.978;2022-12-07T13:02:50;5.70;99.90
15241;DHT22;7723;52.170;9.978;2022-12-07T13:05:20;5.70;99.90
15241;DHT22;7723;52.170;9.978;2022-12-07T13:07:58;5.80;99.90
15241;DHT22;7723;52.170;9.978;2022-12-07T13:10:38;5.80;99.90
15241;DHT22;7723;52.170;9.978;2022-12-07T13:13:28;5.80;99.90
15241;DHT22;7723;52.170;9.978;2022-12-07T13:16:36;5.70;99.90
15241;DHT22;7723;52.170;9.978;2022-12-07T13:22:44;5.50;99.90
15241;DHT22;7723;52.170;9.978;2022-12-07T13:25:23;5.60;99.90
15241;DHT22;7723;52.170;9.978;2022-12-07T13:27:57;5.50;99.90
15241;DHT22;7723;52.170;9.978;2022-12-07T13:30:29;5.60;99.90
15241;DHT22;7723;52.170;9.978;2022-12-07T13:32:58;5.50;99.90
15241;DHT22;7723;52.170;9.978;2022-12-07T13:35:30;5.50;99.90
15241;DHT22;7723;52.170;9.978;2022-12-07T13:37:59;5.60;99.90
15241;DHT22;7723;52.170;9.978;2022-12-07T13:40:29;5.50;99.90
15241;DHT22;7723;52.170;9.978;2022-12-07T13:43:01;5.50;99.90
15241;DHT22;7723;52.170;9.978;2022-12-07T13:45:31;5.50;99.90
15241;DHT22;7723;52.170;9.978;2022-12-07T13:48:21;5.50;99.90
15241;DHT22;7723;52.170;9.978;2022-12-07T13:50:56;5.50;99.90
15241;DHT22;7723;52.170;9.978;2022-12-07T13:53:24;5.40;99.90
15241;DHT22;7723;52.170;9.978;2022-12-07T13:55:55;5.40;99.90
15241;DHT22;7723;52.170;9.978;2022-12-07T13:58:23;5.30;99.90
15241;DHT22;7723;52.170;9.978;2022-12-07T14:00:53;5.30;99.90
15241;DHT22;7723;52.170;9.978;2022-12-07T14:03:29;5.20;99.90
15241;DHT22;7723;52.170;9.978;2022-12-07T14:06:06;5.10;99.90
15241;DHT22;7723;52.170;9.978;2022-12-07T14:08:34;5.10;99.90
15241;DHT22;7723;52.170;9.978;2022-12-07T14:11:02;5.00;99.90
15241;DHT22;7723;52.170;9.978;2022-12-07T14:13:31;5.00;99.90
15241;DHT22;7723;52.170;9.978;2022-12-07T14:16:00;5.00;99.90
15241;DHT22;7723;52.170;9.978;2022-12-07T14:18:29;5.00;99.90
15241;DHT22;7723;52.170;9.978;2022-12-07T14:21:04;4.90;99.90
15241;DHT22;7723;52.170;9.978;2022-12-07T14:23:32;4.80;99.90
15241;DHT22;7723;52.170;9.978;2022-12-07T14:26:10;4.80;99.90
15241;DHT22;7723;52.170;9.978;2022-12-07T14:28:39;4.70;99.90
15241;DHT22;7723;52.170;9.978;2022-12-07T14:31:11;4.80;99.90
15241;DHT22;7723;52.170;9.978;2022-12-07T14:33:39;4.70;99.90
15241;DHT22;7723;52.170;9.978;2022-12-07T14:36:09;4.70;99.90
15241;DHT22;7723;52.170;9.978;2022-12-07T14:38:36;4.70;99.90
15241;DHT22;7723;52.170;9.978;2022-12-07T14:41:04;4.60;99.90
15241;DHT22;7723;52.170;9.978;2022-12-07T14:43:49;4.60;99.90
15241;DHT22;7723;52.170;9.978;2022-12-07T14:46:17;4.60;99.90
15241;DHT22;7723;52.170;9.978;2022-12-07T14:48:44;4.60;99.90
15241;DHT22;7723;52.170;9.978;2022-12-07T14:51:12;4.60;99.90
15241;DHT22;7723;52.170;9.978;2022-12-07T14:53:41;4.50;99.90
15241;DHT22;7723;52.170;9.978;2022-12-07T14:56:09;4.50;99.90
15241;DHT22;7723;52.170;9.978;2022-12-07T14:58:36;4.50;99.90
15241;DHT22;7723;52.170;9.978;2022-12-07T15:01:05;4.40;99.90
15241;DHT22;7723;52.170;9.978;2022-12-07T15:03:32;4.40;99.90
15241;DHT22;7723;52.170;9.978;2022-12-07T15:06:04;4.40;99.90
15241;DHT22;7723;52.170;9.978;2022-12-07T15:08:32;4.40;99.90
15241;DHT22;7723;52.170;9.978;2022-12-07T15:10:59;4.30;99.90
15241;DHT22;7723;52.170;9.978;2022-12-07T15:13:27;4.30;99.90
15241;DHT22;7723;52.170;9.978;2022-12-07T15:16:14;4.30;99.90
15241;DHT22;7723;52.170;9.978;2022-12-07T15:18:43;4.20;99.90
15241;DHT22;7723;52.170;9.978;2022-12-07T15:21:12;4.20;99.90
15241;DHT22;7723;52.170;9.978;2022-12-07T15:23:41;4.20;99.90
15241;DHT22;7723;52.170;9.978;2022-12-07T15:26:10;4.20;99.90
15241;DHT22;7723;52.170;9.978;2022-12-07T15:28:37;4.20;99.90
15241;DHT22;7723;52.170;9.978;2022-12-07T15:31:10;4.20;99.90
15241;DHT22;7723;52.170;9.978;2022-12-07T15:33:38;4.10;99.90
15241;DHT22;7723;52.170;9.978;2022-12-07T15:36:06;4.10;99.90
15241;DHT22;7723;52.170;9.978;2022-12-07T15:38:35;4.00;99.90
15241;DHT22;7723;52.170;9.978;2022-12-07T15:41:02;3.90;99.90
15241;DHT22;7723;52.170;9.978;2022-12-07T15:43:29;3.90;99.90
15241;DHT22;7723;52.170;9.978;2022-12-07T15:46:14;3.90;99.90
15241;DHT22;7723;52.170;9.978;2022-12-07T15:48:42;3.90;99.90
15241;DHT22;7723;52.170;9.978;2022-12-07T15:51:12;3.80;99.90
15241;DHT22;7723;52.170;9.978;2022-12-07T15:53:40;3.80;99.90
15241;DHT22;7723;52.170;9.978;2022-12-07T15:56:08;3.80;99.90
15241;DHT22;7723;52.170;9.978;2022-12-07T15:58:35;3.70;99.90
15241;DHT22;7723;52.170;9.978;2022-12-07T16:01:10;3.60;99.90
15241;DHT22;7723;52.170;9.978;2022-12-07T16:03:37;3.60;99.90
15241;DHT22;7723;52.170;9.978;2022-12-07T16:06:06;3.60;99.90
15241;DHT22;7723;52.170;9.978;2022-12-07T16:08:34;3.50;99.90
15241;DHT22;7723;52.170;9.978;2022-12-07T16:11:04;3.40;99.90
15241;DHT22;7723;52.170;9.978;2022-12-07T16:13:32;3.40;99.90
15241;DHT22;7723;52.170;9.978;2022-12-07T16:16:02;3.40;99.90
15241;DHT22;7723;52.170;9.978;2022-12-07T16:18:31;3.30;99.90
15241;DHT22;7723;52.170;9.978;2022-12-07T16:20:58;3.20;99.90
15241;DHT22;7723;52.170;9.978;2022-12-07T16:23:28;3.20;99.90
15241;DHT22;7723;52.170;9.978;2022-12-07T16:26:04;3.20;99.90
15241;DHT22;7723;52.170;9.978;2022-12-07T16:28:32;3.10;99.90
15241;DHT22;7723;52.170;9.978;2022-12-07T16:31:07;3.20;99.90
15241;DHT22;7723;52.170;9.978;2022-12-07T16:33:35;3.10;99.90